Time;durP1;ratioP1;P1;durP2;ratioP2;P2;SDS_P1;SDS_P2;PMS_P1;PMS_P2;Temp;Humidity;BMP_temperature;BMP_pressure;BME280_temperature;BME280_humidity;BME280_pressure;Samples;Min_cycle;Max_cycle;Signal;HPM_P1;HPM_P2
2022/07/25 00:00:27;;;;;;;4.47;3.40;;;24.00;99.90;;;;;;5083934;28;20068;-63
2022/07/25 00:02:53;;;;;;;5.65;3.60;;;23.90;99.90;;;;;;5082615;28;20158;-63
2022/07/25 00:05:19;;;;;;;4.63;3.70;;;23.90;99.90;;;;;;5082454;28;20137;-63
2022/07/25 00:07:44;;;;;;;3.90;3.08;;;23.80;99.90;;;;;;5084350;28;20032;-64
2022/07/25 00:10:10;;;;;;;5.60;3.63;;;23.80;99.90;;;;;;5080080;28;20115;-63
2022/07/25 00:12:36;;;;;;;8.40;3.85;;;23.80;99.90;;;;;;5083236;28;20055;-64
2022/07/25 00:15:03;;;;;;;7.22;4.10;;;23.70;99.90;;;;;;5082927;28;20281;-63
2022/07/25 00:17:29;;;;;;;6.03;3.92;;;23.70;99.90;;;;;;5080218;28;20066;-63
2022/07/25 00:19:54;;;;;;;5.85;4.13;;;23.70;99.90;;;;;;5079476;28;20055;-63
2022/07/25 00:22:20;;;;;;;5.32;3.83;;;23.70;99.90;;;;;;5080467;28;20059;-63
2022/07/25 00:24:46;;;;;;;5.28;4.18;;;23.60;99.90;;;;;;5084408;28;20050;-64
2022/07/25 00:27:11;;;;;;;5.93;3.70;;;23.60;99.90;;;;;;5082058;28;20048;-64
2022/07/25 00:29:37;;;;;;;8.43;3.60;;;23.60;99.90;;;;;;5082317;28;20453;-63
2022/07/25 00:32:03;;;;;;;5.90;4.35;;;23.60;99.90;;;;;;5066143;28;20097;-63
2022/07/25 00:34:29;;;;;;;5.13;3.92;;;23.50;99.90;;;;;;5065987;28;20039;-63
2022/07/25 00:36:55;;;;;;;6.13;4.05;;;23.50;99.90;;;;;;5082185;28;20036;-63
2022/07/25 00:39:20;;;;;;;5.70;3.88;;;23.50;99.90;;;;;;5081726;28;20044;-64
2022/07/25 00:41:46;;;;;;;6.20;4.40;;;23.40;99.90;;;;;;5080153;28;20044;-63
2022/07/25 00:44:25;;;;;;;5.32;4.40;;;23.40;99.90;;;;;;5085022;28;20048;-64
2022/07/25 00:46:52;;;;;;;5.45;4.30;;;23.30;99.90;;;;;;5064615;28;20044;-63
2022/07/25 00:49:18;;;;;;;5.47;4.50;;;23.30;99.90;;;;;;5082954;28;20116;-64
2022/07/25 00:51:44;;;;;;;6.95;4.38;;;23.30;99.90;;;;;;5081907;28;20107;-63
2022/07/25 00:54:10;;;;;;;9.07;4.53;;;23.30;99.90;;;;;;5064778;28;20036;-63
2022/07/25 00:56:37;;;;;;;5.90;5.00;;;23.20;99.90;;;;;;5062688;28;20098;-63
2022/07/25 00:59:03;;;;;;;8.02;5.20;;;23.20;99.90;;;;;;5080471;28;20038;-64
2022/07/25 01:01:29;;;;;;;9.00;5.07;;;23.20;99.90;;;;;;5083432;28;20038;-62
2022/07/25 01:03:56;;;;;;;7.20;5.25;;;23.10;99.90;;;;;;5064477;28;20039;-63
2022/07/25 01:06:22;;;;;;;8.07;5.50;;;23.10;99.90;;;;;;5063752;28;20044;-64
2022/07/25 01:08:48;;;;;;;6.22;5.18;;;23.10;99.90;;;;;;5080648;28;20107;-63
2022/07/25 01:11:14;;;;;;;9.13;5.55;;;23.10;99.90;;;;;;5061963;28;20072;-63
2022/07/25 01:13:40;;;;;;;6.60;5.10;;;23.00;99.90;;;;;;5082934;28;20082;-63
2022/07/25 01:16:06;;;;;;;7.03;5.25;;;23.00;99.90;;;;;;5081959;28;20039;-63
2022/07/25 01:18:33;;;;;;;7.78;5.70;;;22.90;99.90;;;;;;5080891;28;20051;-63
2022/07/25 01:21:00;;;;;;;7.28;5.47;;;22.90;99.90;;;;;;5062677;28;20051;-63
2022/07/25 01:23:26;;;;;;;6.35;5.30;;;22.90;99.90;;;;;;5080407;28;20142;-63
2022/07/25 01:25:52;;;;;;;6.40;5.65;;;22.80;99.90;;;;;;5081636;28;20122;-63
2022/07/25 01:28:18;;;;;;;7.57;6.30;;;22.80;99.90;;;;;;5080893;28;20056;-64
2022/07/25 01:30:44;;;;;;;9.43;6.03;;;22.80;99.90;;;;;;5082741;28;20051;-63
2022/07/25 01:33:18;;;;;;;7.28;5.85;;;22.80;99.90;;;;;;5079476;28;20547;-63
2022/07/25 01:35:44;;;;;;;;;;;22.70;99.90;;;;;;5082472;28;20036;-63
2022/07/25 01:38:10;;;;;;;10.32;6.32;;;22.70;99.90;;;;;;5080578;28;19965;-63
2022/07/25 01:40:36;;;;;;;7.60;6.20;;;22.70;99.90;;;;;;5079973;28;20036;-62
2022/07/25 01:43:02;;;;;;;6.70;5.72;;;22.70;99.90;;;;;;5081604;28;20100;-63
2022/07/25 01:45:27;;;;;;;8.00;6.60;;;22.70;99.90;;;;;;5082224;28;20044;-63
2022/07/25 01:47:53;;;;;;;8.73;6.32;;;22.70;99.90;;;;;;5080349;28;20054;-64
2022/07/25 01:50:19;;;;;;;7.63;6.43;;;22.70;99.90;;;;;;5081800;28;20035;-62
2022/07/25 01:52:45;;;;;;;8.15;6.30;;;22.60;99.90;;;;;;5079814;28;20028;-63
2022/07/25 01:55:11;;;;;;;7.97;6.53;;;22.60;99.90;;;;;;5064226;28;20063;-63
2022/07/25 01:57:38;;;;;;;8.25;6.55;;;22.60;99.90;;;;;;5080008;28;20364;-63
2022/07/25 02:00:06;;;;;;;8.02;6.80;;;22.60;99.90;;;;;;5081160;28;20127;-64
2022/07/25 02:02:32;;;;;;;8.02;6.45;;;22.60;99.90;;;;;;5081601;28;20358;-63
2022/07/25 02:04:58;;;;;;;7.78;6.65;;;22.60;99.90;;;;;;5080639;28;20046;-63
2022/07/25 02:07:23;;;;;;;8.55;7.00;;;22.60;99.90;;;;;;5079734;28;20052;-63
2022/07/25 02:09:49;;;;;;;8.75;7.05;;;22.60;99.90;;;;;;5080152;28;20032;-63
2022/07/25 02:12:15;;;;;;;8.68;6.95;;;22.50;99.90;;;;;;5079859;28;20135;-64
2022/07/25 02:14:40;;;;;;;9.10;7.10;;;22.50;99.90;;;;;;5044741;28;20035;-64
2022/07/25 02:17:09;;;;;;;7.78;6.95;;;22.50;99.90;;;;;;5079686;28;20075;-63
2022/07/25 02:19:36;;;;;;;10.63;7.68;;;22.50;99.90;;;;;;5079397;28;20035;-63
2022/07/25 02:22:01;;;;;;;10.15;7.53;;;22.50;99.90;;;;;;5079635;28;20066;-63
2022/07/25 02:24:27;;;;;;;9.48;7.22;;;22.50;99.90;;;;;;5081232;28;20044;-63
2022/07/25 02:26:53;;;;;;;11.98;7.97;;;22.50;99.90;;;;;;5080749;28;20036;-63
2022/07/25 02:29:19;;;;;;;9.77;7.40;;;22.50;99.90;;;;;;5080925;28;20044;-63
2022/07/25 02:31:44;;;;;;;11.85;7.85;;;22.50;99.90;;;;;;5083075;28;20052;-64
2022/07/25 02:34:10;;;;;;;8.70;7.80;;;22.50;99.90;;;;;;5078029;28;20119;-63
2022/07/25 02:36:36;;;;;;;8.95;8.00;;;22.50;99.90;;;;;;5080165;28;20033;-65
2022/07/25 02:39:02;;;;;;;11.60;8.80;;;22.50;99.90;;;;;;5079724;28;20125;-63
2022/07/25 02:41:28;;;;;;;8.88;7.63;;;22.50;99.90;;;;;;5080731;28;20036;-63
2022/07/25 02:43:53;;;;;;;11.07;8.70;;;22.40;99.90;;;;;;5050222;28;20035;-63
2022/07/25 02:46:22;;;;;;;8.55;7.53;;;22.40;99.90;;;;;;5084648;28;20203;-63
2022/07/25 02:48:47;;;;;;;11.88;9.00;;;22.40;99.90;;;;;;5085356;28;20028;-64
2022/07/25 02:51:13;;;;;;;11.65;9.07;;;22.40;99.90;;;;;;5084328;28;20829;-63
2022/07/25 02:53:39;;;;;;;12.13;9.40;;;22.30;99.90;;;;;;5082021;28;20494;-64
2022/07/25 02:56:05;;;;;;;10.77;9.52;;;22.10;99.90;;;;;;5084442;28;20308;-64
2022/07/25 02:58:30;;;;;;;11.02;9.43;;;22.10;99.90;;;;;;5083313;28;20445;-63
2022/07/25 03:00:56;;;;;;;13.80;9.07;;;22.00;99.90;;;;;;5083419;28;20036;-64
2022/07/25 03:03:22;;;;;;;11.15;8.93;;;22.00;99.90;;;;;;5084312;28;20151;-64
2022/07/25 03:05:47;;;;;;;13.40;9.45;;;21.90;99.90;;;;;;5084006;28;20040;-64
2022/07/25 03:08:13;;;;;;;13.95;9.93;;;21.90;99.90;;;;;;5082695;28;20067;-64
2022/07/25 03:10:39;;;;;;;14.07;9.80;;;21.90;99.90;;;;;;5083383;28;20408;-64
2022/07/25 03:13:04;;;;;;;12.68;9.52;;;21.90;99.90;;;;;;5064712;28;20433;-65
2022/07/25 03:15:30;;;;;;;11.75;9.30;;;21.90;99.90;;;;;;5084820;28;20093;-63
2022/07/25 03:17:56;;;;;;;10.90;9.80;;;21.80;99.90;;;;;;5083183;28;20043;-64
2022/07/25 03:20:22;;;;;;;10.52;9.27;;;21.90;99.90;;;;;;5082665;28;20143;-64
2022/07/25 03:22:47;;;;;;;10.65;9.52;;;21.90;99.90;;;;;;5083300;28;20082;-63
2022/07/25 03:25:13;;;;;;;11.60;9.55;;;21.90;99.90;;;;;;5066581;28;20136;-64
2022/07/25 03:27:39;;;;;;;12.38;10.00;;;21.80;99.90;;;;;;5082177;28;20036;-64
2022/07/25 03:30:05;;;;;;;10.02;8.88;;;21.80;99.90;;;;;;5063820;28;20047;-64
2022/07/25 03:32:31;;;;;;;13.30;10.48;;;21.80;99.90;;;;;;5082809;28;20515;-64
2022/07/25 03:34:56;;;;;;;12.02;10.07;;;21.80;99.90;;;;;;5082237;28;20028;-64
2022/07/25 03:37:22;;;;;;;12.68;10.68;;;21.80;99.90;;;;;;5065159;28;20055;-64
2022/07/25 03:39:48;;;;;;;12.88;10.18;;;21.80;99.90;;;;;;5082481;28;20040;-64
2022/07/25 03:42:14;;;;;;;12.32;10.38;;;21.80;99.90;;;;;;5082931;28;20103;-63
2022/07/25 03:44:39;;;;;;;11.40;10.20;;;21.80;99.90;;;;;;5085577;28;20060;-64
2022/07/25 03:47:05;;;;;;;12.10;10.73;;;21.80;99.90;;;;;;5064542;28;20047;-64
2022/07/25 03:49:31;;;;;;;12.50;10.48;;;21.80;99.90;;;;;;5064684;28;20063;-63
2022/07/25 03:51:57;;;;;;;12.98;10.85;;;21.80;99.90;;;;;;5082615;28;20093;-63
2022/07/25 03:54:23;;;;;;;11.80;10.38;;;21.80;99.90;;;;;;5084418;28;20350;-64
2022/07/25 03:56:50;;;;;;;13.30;11.90;;;21.70;99.90;;;;;;5080315;28;20046;-63
2022/07/25 03:59:19;;;;;;;15.68;11.27;;;21.70;99.90;;;;;;5064073;28;20044;-64
2022/07/25 04:01:46;;;;;;;15.32;11.20;;;21.70;99.90;;;;;;5082987;28;20067;-63
2022/07/25 04:04:13;;;;;;;14.93;10.55;;;21.70;99.90;;;;;;5081871;28;20481;-63
2022/07/25 04:06:39;;;;;;;12.48;10.98;;;21.60;99.90;;;;;;5065672;28;20032;-65
2022/07/25 04:09:08;;;;;;;14.50;11.52;;;21.70;99.90;;;;;;5062153;28;20036;-63
2022/07/25 04:11:34;;;;;;;13.02;10.68;;;21.70;99.90;;;;;;5061976;28;20440;-63
2022/07/25 04:14:01;;;;;;;13.10;11.70;;;21.70;99.90;;;;;;5083078;28;20036;-64
2022/07/25 04:16:27;;;;;;;12.98;11.38;;;21.70;99.90;;;;;;5081866;28;20389;-64
2022/07/25 04:18:53;;;;;;;14.32;12.05;;;21.80;99.90;;;;;;5044816;28;20048;-63
2022/07/25 04:21:19;;;;;;;16.38;12.25;;;21.80;99.90;;;;;;5067145;28;20115;-63
2022/07/25 04:23:45;;;;;;;13.52;12.05;;;21.90;99.90;;;;;;5080838;28;20515;-63
2022/07/25 04:26:10;;;;;;;16.02;12.65;;;21.90;99.90;;;;;;5082521;28;20085;-64
2022/07/25 04:28:36;;;;;;;16.00;13.18;;;21.90;99.90;;;;;;5063898;28;20078;-64
2022/07/25 04:31:02;;;;;;;15.52;13.93;;;21.90;99.90;;;;;;5064828;28;20087;-64
2022/07/25 04:33:28;;;;;;;16.08;13.50;;;22.00;99.90;;;;;;5080834;28;20407;-64
2022/07/25 04:35:53;;;;;;;14.13;12.60;;;22.00;99.90;;;;;;5082387;28;20033;-64
2022/07/25 04:38:19;;;;;;;15.68;13.73;;;22.00;99.90;;;;;;5062730;28;20044;-64
2022/07/25 04:40:45;;;;;;;20.23;14.27;;;22.00;99.90;;;;;;5081956;28;20388;-63
2022/07/25 04:43:11;;;;;;;15.30;13.70;;;22.00;99.90;;;;;;5061074;28;20170;-64
2022/07/25 04:45:37;;;;;;;18.38;14.55;;;22.00;99.90;;;;;;5084634;28;20103;-63
2022/07/25 04:48:03;;;;;;;14.95;13.35;;;22.10;99.90;;;;;;5082738;28;20357;-64
2022/07/25 04:50:29;;;;;;;14.68;13.10;;;22.10;99.90;;;;;;5064159;28;20055;-64
2022/07/25 04:52:55;;;;;;;16.58;13.88;;;22.10;99.90;;;;;;5080346;28;20443;-64
2022/07/25 04:55:21;;;;;;;14.77;13.18;;;22.20;99.90;;;;;;5081073;28;20060;-64
2022/07/25 04:57:46;;;;;;;15.13;13.40;;;22.30;99.90;;;;;;5080039;28;20393;-64
2022/07/25 05:00:13;;;;;;;15.52;13.88;;;22.30;99.90;;;;;;5061517;28;20051;-64
2022/07/25 05:02:39;;;;;;;15.85;13.68;;;22.40;99.90;;;;;;5084851;28;20405;-64
2022/07/25 05:05:05;;;;;;;15.32;13.40;;;22.50;99.90;;;;;;5082856;28;20079;-63
2022/07/25 05:07:31;;;;;;;16.13;12.75;;;22.50;99.90;;;;;;5079498;28;20037;-64
2022/07/25 05:09:57;;;;;;;16.20;13.63;;;22.50;99.90;;;;;;5079037;28;20035;-64
2022/07/25 05:12:23;;;;;;;14.68;12.90;;;22.50;99.90;;;;;;5086330;28;20044;-64
2022/07/25 05:14:48;;;;;;;14.65;13.15;;;22.50;99.90;;;;;;5088668;28;20109;-64
2022/07/25 05:17:14;;;;;;;14.95;13.43;;;22.50;99.90;;;;;;5063997;28;20072;-64
2022/07/25 05:19:40;;;;;;;15.07;12.57;;;22.50;99.90;;;;;;5077653;28;20028;-64
2022/07/25 05:22:06;;;;;;;16.25;12.90;;;22.60;99.90;;;;;;5076648;28;20465;-64
2022/07/25 05:24:33;;;;;;;16.52;13.07;;;22.60;99.90;;;;;;5061084;28;20158;-63
2022/07/25 05:26:59;;;;;;;14.52;12.57;;;22.70;99.90;;;;;;5064036;28;20049;-65
2022/07/25 05:29:24;;;;;;;14.95;13.20;;;22.70;99.90;;;;;;5064315;28;20059;-64
2022/07/25 05:31:50;;;;;;;13.98;12.43;;;22.70;99.90;;;;;;5081452;28;20036;-64
2022/07/25 05:34:16;;;;;;;16.55;13.18;;;22.90;99.90;;;;;;5059766;28;20089;-63
2022/07/25 05:36:41;;;;;;;13.90;12.15;;;22.90;99.90;;;;;;5075938;28;20086;-61
2022/07/25 05:39:07;;;;;;;15.23;13.27;;;23.10;99.90;;;;;;5059857;28;20040;-62
2022/07/25 05:41:32;;;;;;;14.98;13.32;;;23.10;99.90;;;;;;5061890;28;20094;-61
2022/07/25 05:43:58;;;;;;;14.02;12.00;;;23.10;99.90;;;;;;5066249;28;20032;-62
2022/07/25 05:46:24;;;;;;;17.98;12.73;;;23.10;99.90;;;;;;5082814;28;20041;-62
2022/07/25 05:48:49;;;;;;;13.25;11.85;;;23.20;99.90;;;;;;5080165;28;20079;-62
2022/07/25 05:51:15;;;;;;;18.38;12.43;;;23.40;99.90;;;;;;5057886;28;20067;-63
2022/07/25 05:53:41;;;;;;;13.02;11.73;;;23.70;99.90;;;;;;5060654;28;20057;-63
2022/07/25 05:56:08;;;;;;;14.23;12.35;;;23.80;99.90;;;;;;5062652;28;20519;-63
2022/07/25 05:58:36;;;;;;;13.93;12.30;;;23.80;99.90;;;;;;5080648;28;20421;-61
2022/07/25 06:01:02;;;;;;;13.07;11.77;;;23.80;99.90;;;;;;5078651;28;20036;-63
2022/07/25 06:03:29;;;;;;;13.18;11.88;;;23.90;99.90;;;;;;5041123;28;20488;-62
2022/07/25 06:05:55;;;;;;;18.58;12.82;;;24.00;99.90;;;;;;5066209;28;20105;-60
2022/07/25 06:08:21;;;;;;;13.52;12.20;;;23.80;99.90;;;;;;5065668;28;20031;-61
2022/07/25 06:10:46;;;;;;;16.92;12.02;;;23.80;99.90;;;;;;5084620;28;20028;-61
2022/07/25 06:13:12;;;;;;;13.05;11.75;;;24.00;99.90;;;;;;5083316;28;20032;-61
2022/07/25 06:15:38;;;;;;;13.45;12.05;;;24.10;99.90;;;;;;5086263;28;20110;-62
2022/07/25 06:18:04;;;;;;;13.35;11.93;;;24.30;99.90;;;;;;5081738;28;20119;-61
2022/07/25 06:20:29;;;;;;;14.07;11.80;;;24.60;99.90;;;;;;5082515;28;20033;-60
2022/07/25 06:22:55;;;;;;;14.32;11.85;;;25.00;99.90;;;;;;5066263;28;20063;-61
2022/07/25 06:25:21;;;;;;;16.45;11.98;;;25.10;99.90;;;;;;5086819;28;20114;-62
2022/07/25 06:27:49;;;;;;;14.98;11.60;;;25.30;99.90;;;;;;5084696;28;20109;-60
2022/07/25 06:30:15;;;;;;;13.38;11.98;;;25.50;99.90;;;;;;5068351;28;20145;-61
2022/07/25 06:32:41;;;;;;;12.98;11.35;;;25.70;99.90;;;;;;5084428;28;20760;-61
2022/07/25 06:35:07;;;;;;;15.98;10.70;;;25.90;99.90;;;;;;5081227;28;20033;-61
2022/07/25 06:37:36;;;;;;;13.48;10.25;;;26.30;99.90;;;;;;5077959;28;20457;-61
2022/07/25 06:40:06;;;;;;;12.95;10.15;;;26.90;99.90;;;;;;5078537;28;20047;-61
2022/07/25 06:42:33;;;;;;;12.13;9.95;;;27.20;99.90;;;;;;5059844;28;20051;-61
2022/07/25 06:45:03;;;;;;;11.93;9.20;;;27.20;99.90;;;;;;5080158;28;20040;-60
2022/07/25 06:47:29;;;;;;;10.70;9.43;;;27.10;99.90;;;;;;5078342;28;20178;-60
2022/07/25 06:49:55;;;;;;;10.77;9.68;;;26.90;99.90;;;;;;5078632;28;20119;-60
2022/07/25 06:52:20;;;;;;;13.65;10.18;;;26.50;99.90;;;;;;5077058;28;20037;-60
2022/07/25 06:54:46;;;;;;;16.60;10.65;;;26.30;99.90;;;;;;5079958;28;20071;-60
2022/07/25 06:57:11;;;;;;;12.48;10.35;;;26.20;99.90;;;;;;5077522;28;20054;-60
2022/07/25 06:59:37;;;;;;;14.30;11.35;;;25.90;99.90;;;;;;5078716;28;20480;-60
2022/07/25 07:02:03;;;;;;;13.35;10.45;;;25.70;99.90;;;;;;5077140;28;20052;-60
2022/07/25 07:04:28;;;;;;;11.63;10.43;;;25.50;99.90;;;;;;5061123;28;20521;-60
2022/07/25 07:06:54;;;;;;;13.63;11.45;;;25.30;99.90;;;;;;5076468;28;20502;-60
2022/07/25 07:09:20;;;;;;;13.38;11.00;;;25.10;99.90;;;;;;5059935;28;20442;-60
2022/07/25 07:11:45;;;;;;;15.73;12.60;;;25.00;99.90;;;;;;5078746;28;20629;-59
2022/07/25 07:14:11;;;;;;;12.07;10.85;;;24.80;99.90;;;;;;5077144;28;20047;-60
2022/07/25 07:16:36;;;;;;;14.40;11.77;;;24.70;99.90;;;;;;5077820;28;20068;-60
2022/07/25 07:19:02;;;;;;;11.73;10.50;;;24.60;99.90;;;;;;5077273;28;20044;-61
2022/07/25 07:21:28;;;;;;;15.45;11.27;;;24.60;99.90;;;;;;5077941;28;20420;-63
2022/07/25 07:23:54;;;;;;;13.38;10.95;;;24.60;99.90;;;;;;5083357;28;20052;-61
2022/07/25 07:26:20;;;;;;;13.88;10.50;;;24.60;99.90;;;;;;5081840;28;20055;-62
2022/07/25 07:28:46;;;;;;;12.98;11.02;;;24.80;99.90;;;;;;5086892;28;20071;-60
2022/07/25 07:31:12;;;;;;;14.82;10.95;;;24.90;99.90;;;;;;5083361;28;20446;-62
2022/07/25 07:33:37;;;;;;;12.82;10.52;;;25.10;99.90;;;;;;5083626;28;20035;-61
2022/07/25 07:36:03;;;;;;;13.95;10.35;;;25.40;99.90;;;;;;5083299;28;20082;-61
2022/07/25 07:38:29;;;;;;;14.65;10.00;;;25.70;99.90;;;;;;5083427;28;20028;-61
2022/07/25 07:40:54;;;;;;;12.63;9.68;;;25.80;99.90;;;;;;5048529;28;20098;-62
2022/07/25 07:43:20;;;;;;;10.95;9.35;;;26.00;99.90;;;;;;5082539;28;20032;-61
2022/07/25 07:45:46;;;;;;;11.60;9.15;;;26.20;99.90;;;;;;5068497;28;20049;-61
2022/07/25 07:48:12;;;;;;;10.30;8.10;;;26.20;99.90;;;;;;5082622;28;20072;-62
2022/07/25 07:50:37;;;;;;;12.43;8.30;;;26.10;99.90;;;;;;5083040;28;20645;-61
2022/07/25 07:53:03;;;;;;;9.35;8.20;;;26.10;99.90;;;;;;5082871;28;20037;-61
2022/07/25 07:55:44;;;;;;;9.07;7.15;;;25.90;99.90;;;;;;5082501;28;20051;-61
2022/07/25 07:58:17;;;;;;;9.70;7.50;;;25.90;99.90;;;;;;5080810;28;20041;-64
2022/07/25 08:00:50;;;;;;;13.30;7.38;;;25.80;99.90;;;;;;5082031;28;20072;-64
2022/07/25 08:03:18;;;;;;;8.82;7.18;;;25.80;99.90;;;;;;5084161;28;20047;-64
2022/07/25 08:05:45;;;;;;;9.13;6.43;;;25.70;99.90;;;;;;5085859;28;20032;-63
2022/07/25 08:08:12;;;;;;;9.52;6.13;;;25.70;99.90;;;;;;5064127;28;20048;-62
2022/07/25 08:10:44;;;;;;;9.75;6.03;;;25.70;99.90;;;;;;5081143;28;20365;-61
2022/07/25 08:13:30;;;;;;;9.80;5.53;;;25.80;99.90;;;;;;5082647;28;20051;-64
2022/07/25 08:15:57;;;;;;;8.60;5.07;;;26.00;99.90;;;;;;5082878;28;20266;-61
2022/07/25 08:18:25;;;;;;;5.47;3.72;;;26.30;99.90;;;;;;5064168;28;20123;-61
2022/07/25 08:20:51;;;;;;;7.15;3.78;;;26.30;99.90;;;;;;5081793;28;20028;-61
2022/07/25 08:23:18;;;;;;;5.32;3.53;;;26.20;99.90;;;;;;5059786;28;20044;-61
2022/07/25 08:25:45;;;;;;;6.50;3.78;;;26.20;99.90;;;;;;5061184;28;20044;-61
2022/07/25 08:28:11;;;;;;;5.57;4.15;;;26.20;99.90;;;;;;5063241;28;20033;-62
2022/07/25 08:30:38;;;;;;;6.60;3.15;;;26.20;99.90;;;;;;5063139;28;20211;-61
2022/07/25 08:33:08;;;;;;;7.82;4.03;;;26.10;99.90;;;;;;5064789;28;20036;-61
2022/07/25 08:35:34;;;;;;;6.03;3.38;;;26.00;99.90;;;;;;5061345;28;20037;-64
2022/07/25 08:38:01;;;;;;;5.50;2.90;;;25.90;99.90;;;;;;5060346;28;20117;-64
2022/07/25 08:40:29;;;;;;;4.95;3.10;;;25.80;99.90;;;;;;5059649;28;20120;-64
2022/07/25 08:42:55;;;;;;;6.80;2.60;;;25.70;99.90;;;;;;5063745;28;20032;-61
2022/07/25 08:45:21;;;;;;;6.65;2.80;;;25.60;99.90;;;;;;5062249;28;20502;-61
2022/07/25 08:47:49;;;;;;;6.57;2.63;;;25.60;99.90;;;;;;5060821;28;20136;-60
2022/07/25 08:50:17;;;;;;;5.05;2.47;;;25.50;99.90;;;;;;5062919;28;20129;-61
2022/07/25 08:52:46;;;;;;;6.40;2.88;;;25.30;99.90;;;;;;5061073;28;20039;-61
2022/07/25 08:55:19;;;;;;;5.95;2.70;;;25.40;99.90;;;;;;5061640;28;20048;-60
2022/07/25 08:57:46;;;;;;;6.57;3.47;;;25.40;99.90;;;;;;5059401;28;20476;-61
2022/07/25 09:00:16;;;;;;;4.25;2.90;;;25.40;99.90;;;;;;5059474;28;20052;-61
2022/07/25 09:02:42;;;;;;;6.78;3.25;;;25.30;99.90;;;;;;5062815;28;20072;-62
2022/07/25 09:05:08;;;;;;;7.15;3.10;;;25.30;99.90;;;;;;5059920;28;20121;-61
2022/07/25 09:07:39;;;;;;;7.00;3.05;;;25.40;99.90;;;;;;5060600;28;20506;-61
2022/07/25 09:10:21;;;;;;;4.80;2.90;;;25.40;99.90;;;;;;5061586;28;20124;-61
2022/07/25 09:12:53;;;;;;;8.30;3.25;;;25.60;99.90;;;;;;5060045;28;20362;-61
2022/07/25 09:15:31;;;;;;;6.78;3.40;;;25.70;99.90;;;;;;5062021;28;20156;-62
2022/07/25 09:18:00;;;;;;;8.45;4.05;;;25.80;99.90;;;;;;5060821;28;20067;-61
2022/07/25 09:20:38;;;;;;;6.53;2.88;;;25.80;99.90;;;;;;5060676;28;20135;-61
2022/07/25 09:23:04;;;;;;;3.47;2.58;;;25.70;99.90;;;;;;5067962;28;20139;-61
2022/07/25 09:25:29;;;;;;;5.68;2.40;;;25.80;99.90;;;;;;5081902;28;20528;-61
2022/07/25 09:28:16;;;;;;;6.72;3.08;;;25.80;99.90;;;;;;5081520;28;20041;-61
2022/07/25 09:31:00;;;;;;;6.97;2.53;;;25.80;99.90;;;;;;5082865;28;20032;-61
2022/07/25 09:33:28;;;;;;;4.18;2.25;;;25.70;99.90;;;;;;5082960;28;20113;-61
2022/07/25 09:35:55;;;;;;;4.95;1.85;;;25.60;99.90;;;;;;5081019;28;20045;-61
2022/07/25 09:38:22;;;;;;;3.58;1.67;;;25.50;99.90;;;;;;5079255;28;20115;-63
2022/07/25 09:41:02;;;;;;;3.17;1.75;;;25.40;99.90;;;;;;5063744;28;20030;-63
2022/07/25 09:43:38;;;;;;;3.45;1.73;;;25.40;99.90;;;;;;5082331;28;20945;-64
2022/07/25 09:46:05;;;;;;;3.05;1.65;;;25.40;99.90;;;;;;5081660;28;20051;-64
2022/07/25 09:48:32;;;;;;;7.55;2.70;;;25.60;99.90;;;;;;5080498;28;20056;-64
2022/07/25 09:50:58;;;;;;;3.60;1.83;;;25.60;99.90;;;;;;5082186;28;20028;-63
2022/07/25 09:53:24;;;;;;;3.85;1.73;;;25.70;99.90;;;;;;5077431;28;20128;-64
2022/07/25 09:55:52;;;;;;;4.72;1.50;;;25.70;99.90;;;;;;5083409;28;20051;-63
2022/07/25 09:58:18;;;;;;;5.63;1.70;;;25.80;99.90;;;;;;5062251;28;20459;-62
2022/07/25 10:00:44;;;;;;;6.57;1.70;;;26.00;99.90;;;;;;5081290;28;20097;-61
2022/07/25 10:03:28;;;;;;;6.05;1.67;;;26.10;99.90;;;;;;5062300;28;20066;-61
2022/07/25 10:06:10;;;;;;;3.45;1.45;;;26.10;99.90;;;;;;5083011;28;20048;-61
2022/07/25 10:08:37;;;;;;;5.30;2.03;;;26.10;99.90;;;;;;5078568;28;20199;-62
2022/07/25 10:11:05;;;;;;;2.60;1.63;;;25.90;99.90;;;;;;5078966;28;20037;-63
2022/07/25 10:13:33;;;;;;;6.15;1.60;;;25.90;99.90;;;;;;5079940;28;20114;-64
2022/07/25 10:16:16;;;;;;;4.93;2.30;;;26.10;99.90;;;;;;5083347;28;20076;-61
2022/07/25 10:18:51;;;;;;;6.53;2.38;;;26.10;99.90;;;;;;5080485;28;20111;-64
2022/07/25 10:21:19;;;;;;;7.13;1.88;;;26.00;99.90;;;;;;5080639;28;20476;-61
2022/07/25 10:23:55;;;;;;;5.60;1.70;;;25.80;99.90;;;;;;5079178;28;20050;-63
2022/07/25 10:26:21;;;;;;;9.90;2.20;;;25.60;99.90;;;;;;5063161;28;20358;-63
2022/07/25 10:28:56;;;;;;;5.95;2.03;;;25.30;99.90;;;;;;5082119;28;20364;-61
2022/07/25 10:31:26;;;;;;;7.85;2.08;;;25.10;99.90;;;;;;5082216;28;20028;-60
2022/07/25 10:33:58;;;;;;;6.35;2.17;;;24.70;99.90;;;;;;5080499;28;20040;-60
2022/07/25 10:36:28;;;;;;;6.03;2.53;;;24.40;99.90;;;;;;5082778;28;20129;-60
2022/07/25 10:38:59;;;;;;;10.23;2.20;;;24.30;99.90;;;;;;5061931;28;20044;-60
2022/07/25 10:41:27;;;;;;;11.20;3.10;;;24.20;99.90;;;;;;5081068;28;20041;-61
2022/07/25 10:43:58;;;;;;;6.70;2.42;;;24.10;99.90;;;;;;5081495;28;20036;-61
2022/07/25 10:46:29;;;;;;;9.00;3.00;;;24.10;99.90;;;;;;5081930;28;20044;-61
2022/07/25 10:49:06;;;;;;;6.78;3.00;;;24.10;99.90;;;;;;5062329;28;20032;-61
2022/07/25 10:51:34;;;;;;;5.80;2.33;;;24.20;99.90;;;;;;5061689;28;20040;-61
2022/07/25 10:54:15;;;;;;;8.75;3.10;;;24.30;99.90;;;;;;5079339;28;20107;-61
2022/07/25 10:56:59;;;;;;;9.65;3.38;;;24.60;99.90;;;;;;5079589;28;20343;-61
2022/07/25 10:59:31;;;;;;;8.15;2.92;;;24.90;99.90;;;;;;5081192;28;20040;-62
2022/07/25 11:01:57;;;;;;;8.00;3.30;;;25.00;99.90;;;;;;5080918;28;20102;-61
2022/07/25 11:04:23;;;;;;;10.05;2.63;;;25.30;99.90;;;;;;5083887;28;20035;-61
2022/07/25 11:06:49;;;;;;;9.80;3.17;;;25.40;99.90;;;;;;5085770;28;20040;-62
2022/07/25 11:09:18;;;;;;;7.40;2.88;;;25.40;99.90;;;;;;5081653;28;20098;-62
2022/07/25 11:11:50;;;;;;;11.63;2.95;;;25.40;99.90;;;;;;5082061;28;20080;-61
2022/07/25 11:14:40;;;;;;;10.48;3.22;;;25.40;99.90;;;;;;5084890;28;20384;-61
2022/07/25 11:17:24;;;;;;;9.52;3.50;;;25.40;99.90;;;;;;5082472;28;20039;-62
2022/07/25 11:20:03;;;;;;;8.70;3.08;;;25.30;99.90;;;;;;5080851;28;20432;-61
2022/07/25 11:22:52;;;;;;;10.00;3.92;;;25.40;99.90;;;;;;5081616;28;20128;-61
2022/07/25 11:25:21;;;;;;;9.98;3.20;;;25.60;99.90;;;;;;5086422;28;20044;-61
2022/07/25 11:27:55;;;;;;;11.43;3.42;;;25.80;99.90;;;;;;5082570;28;20048;-64
2022/07/25 11:30:21;;;;;;;10.10;2.80;;;25.80;99.90;;;;;;5083356;28;20166;-64
2022/07/25 11:32:54;;;;;;;9.05;2.60;;;25.70;99.90;;;;;;5088121;28;20111;-64
2022/07/25 11:35:26;;;;;;;6.30;2.28;;;25.50;99.90;;;;;;5084788;28;20068;-64
2022/07/25 11:37:53;;;;;;;10.88;2.42;;;25.40;99.90;;;;;;5080528;28;20489;-60
2022/07/25 11:40:20;;;;;;;9.38;3.03;;;25.30;99.90;;;;;;5083248;28;20033;-62
2022/07/25 11:42:55;;;;;;;8.00;2.28;;;25.10;99.90;;;;;;5082240;28;20064;-61
2022/07/25 11:45:22;;;;;;;7.93;2.60;;;25.00;99.90;;;;;;5064391;28;20056;-61
2022/07/25 11:48:11;;;;;;;8.88;2.97;;;24.80;99.90;;;;;;5084713;28;20067;-64
2022/07/25 11:50:39;;;;;;;5.32;2.20;;;24.70;99.90;;;;;;5079932;28;20029;-63
2022/07/25 11:53:07;;;;;;;8.82;3.25;;;24.50;99.90;;;;;;5085018;28;20040;-61
2022/07/25 11:55:38;;;;;;;10.23;2.30;;;24.60;99.90;;;;;;5083566;28;20036;-62
2022/07/25 11:58:04;;;;;;;7.40;2.17;;;24.60;99.90;;;;;;5081541;28;20401;-61
2022/07/25 12:00:34;;;;;;;10.73;2.55;;;24.80;99.90;;;;;;5084822;28;20139;-61
2022/07/25 12:03:11;;;;;;;9.90;2.30;;;24.90;99.90;;;;;;5082937;28;20032;-61
2022/07/25 12:05:36;;;;;;;9.05;2.70;;;25.00;99.90;;;;;;5081044;28;20210;-64
2022/07/25 12:08:14;;;;;;;7.45;2.00;;;25.00;99.90;;;;;;5081934;28;20119;-61
2022/07/25 12:10:41;;;;;;;9.10;3.22;;;25.00;99.90;;;;;;5082108;28;20164;-61
2022/07/25 12:13:08;;;;;;;9.77;2.38;;;25.20;99.90;;;;;;5083154;28;20055;-60
2022/07/25 12:15:41;;;;;;;7.43;2.33;;;25.20;99.90;;;;;;5081258;28;20032;-61
2022/07/25 12:18:11;;;;;;;9.18;2.10;;;25.40;99.90;;;;;;5061977;28;20183;-61
2022/07/25 12:20:42;;;;;;;6.25;1.90;;;25.30;99.90;;;;;;5082374;28;20468;-64
2022/07/25 12:23:10;;;;;;;6.85;2.63;;;25.30;99.90;;;;;;5080159;28;20127;-64
2022/07/25 12:25:38;;;;;;;8.48;2.33;;;25.20;99.90;;;;;;5081618;28;20040;-60
2022/07/25 12:28:04;;;;;;;11.00;3.17;;;25.20;99.90;;;;;;5081416;28;20043;-61
2022/07/25 12:30:30;;;;;;;6.95;2.40;;;25.10;99.90;;;;;;5084178;28;20048;-61
2022/07/25 12:32:57;;;;;;;6.53;2.97;;;25.20;99.90;;;;;;5085485;28;20032;-60
2022/07/25 12:35:24;;;;;;;8.48;2.40;;;25.30;99.90;;;;;;5082498;28;20036;-61
2022/07/25 12:37:50;;;;;;;5.68;2.22;;;25.20;99.90;;;;;;5080933;28;20054;-60
2022/07/25 12:40:16;;;;;;;8.88;2.40;;;25.30;99.90;;;;;;5080641;28;20527;-60